Daily Summary for September 19, 2021 Units:  Metric    English   Both
Daily Weekly Monthly Yearly
  Current: High: Low: Average:
Temperature: 4.9 °C 7.7 °C 4.9 °C 6.6 °C
Dew Point: 2.4 °C 3.7 °C 2.4 °C 3.2 °C
Humidity: 84% 84% 74% 79%
Wind Speed: 4.8km/h 8.7km/h 1.6km/h 5.5km/h
Wind Gust: 11.3km/h 20.9km/h - -
WindNNE - - SSW
Pressure: 1020.2 hPa 1020.2 hPa 1019.1 hPa -
Precipitation: 0.0 mm      
 
 
Tabular Data for September 19, 2021
Time Temperature Dew Point Pressure Wind Wind Speed Wind Gust Humidity Rainfall Rate (Hourly) solar
00:04 6.8 °C 3.4 °C 1019.9 hPa ENE 5.8 km/h 14.5 km/h 79% 0.0 mm 0 W/m2
00:09 6.7 °C 3.3 °C 1019.9 hPa NE 4.8 km/h 12.9 km/h 79.1% 0.0 mm 0 W/m2
00:14 6.8 °C 3.5 °C 1019.9 hPa NNE 5.5 km/h 17.7 km/h 79.5% 0.0 mm 0 W/m2
00:19 7 °C 3.6 °C 1019.8 hPa NNE 8.7 km/h 19.3 km/h 78.9% 0.0 mm 0 W/m2
00:24 7.2 °C 3.7 °C 1019.8 hPa North 8.7 km/h 19.3 km/h 78.2% 0.0 mm 0 W/m2
00:29 7.3 °C 3.7 °C 1019.9 hPa North 8 km/h 19.3 km/h 78% 0.0 mm 0 W/m2
00:34 7.4 °C 3.6 °C 1019.7 hPa North 8 km/h 17.7 km/h 77.1% 0.0 mm 0 W/m2
00:39 7.5 °C 3.7 °C 1019.8 hPa North 8 km/h 17.7 km/h 77% 0.0 mm 0 W/m2
00:44 7.5 °C 3.7 °C 1019.8 hPa North 8 km/h 17.7 km/h 77% 0.0 mm 0 W/m2
00:49 7.5 °C 3.7 °C 1019.6 hPa NNW 8.4 km/h 16.1 km/h 77% 0.0 mm 0 W/m2
00:54 7.4 °C 3.6 °C 1019.6 hPa NNW 7.7 km/h 16.1 km/h 77% 0.0 mm 0 W/m2
00:59 7.3 °C 3.6 °C 1019.6 hPa NNW 6.4 km/h 16.1 km/h 77.1% 0.0 mm 0 W/m2
01:04 7.3 °C 3.6 °C 1019.6 hPa NNW 7.1 km/h 16.1 km/h 77.3% 0.0 mm 0 W/m2
01:09 7.2 °C 3.6 °C 1019.6 hPa NNW 7.7 km/h 16.1 km/h 77.9% 0.0 mm 0 W/m2
01:14 7.3 °C 3.6 °C 1019.6 hPa NNW 7.7 km/h 17.7 km/h 77.8% 0.0 mm 0 W/m2
01:19 7.2 °C 3.7 °C 1019.6 hPa North 7.4 km/h 17.7 km/h 78% 0.0 mm 0 W/m2
01:24 7.2 °C 3.7 °C 1019.5 hPa NNW 5.8 km/h 17.7 km/h 78% 0.0 mm 0 W/m2
01:29 7.2 °C 3.6 °C 1019.6 hPa NW 4.8 km/h 17.7 km/h 78% 0.0 mm 0 W/m2
01:34 7.1 °C 3.5 °C 1019.6 hPa NW 4.5 km/h 12.9 km/h 78% 0.0 mm 0 W/m2
01:39 7.1 °C 3.6 °C 1019.6 hPa NNW 5.5 km/h 14.5 km/h 78% 0.0 mm 0 W/m2
01:44 7.3 °C 3.6 °C 1019.6 hPa NNW 6.4 km/h 16.1 km/h 77.5% 0.0 mm 0 W/m2
01:49 7.3 °C 3.5 °C 1019.5 hPa NW 6.8 km/h 16.1 km/h 77% 0.0 mm 0 W/m2
01:54 7.3 °C 3.5 °C 1019.5 hPa NW 6.4 km/h 16.1 km/h 77% 0.0 mm 0 W/m2
01:59 7.4 °C 3.6 °C 1019.5 hPa NW 6.4 km/h 16.1 km/h 76.9% 0.0 mm 0 W/m2
02:04 7.5 °C 3.6 °C 1019.4 hPa NW 7.1 km/h 20.9 km/h 76% 0.0 mm 0 W/m2
02:09 7.6 °C 3.5 °C 1019.4 hPa NNW 8.7 km/h 20.9 km/h 75.4% 0.0 mm 0 W/m2
02:14 7.6 °C 3.4 °C 1019.4 hPa NW 8 km/h 20.9 km/h 75% 0.0 mm 0 W/m2
02:19 7.6 °C 3.4 °C 1019.4 hPa NW 6.8 km/h 17.7 km/h 75% 0.0 mm 0 W/m2
02:24 7.6 °C 3.4 °C 1019.4 hPa NW 5.8 km/h 14.5 km/h 75% 0.0 mm 0 W/m2
02:29 7.6 °C 3.5 °C 1019.3 hPa NW 5.5 km/h 16.1 km/h 75% 0.0 mm 0 W/m2
02:34 7.7 °C 3.4 °C 1019.3 hPa NW 6.4 km/h 16.1 km/h 74.2% 0.0 mm 0 W/m2
02:39 7.7 °C 3.4 °C 1019.1 hPa NW 7.1 km/h 16.1 km/h 74% 0.0 mm 0 W/m2
02:44 7.7 °C 3.4 °C 1019.2 hPa NW 6.4 km/h 14.5 km/h 74% 0.0 mm 0 W/m2
02:49 7.6 °C 3.4 °C 1019.2 hPa NW 6.4 km/h 14.5 km/h 74.9% 0.0 mm 0 W/m2
02:54 7.6 °C 3.4 °C 1019.2 hPa NW 4.8 km/h 12.9 km/h 75% 0.0 mm 0 W/m2
02:59 7.5 °C 3.4 °C 1019.2 hPa NW 4.2 km/h 12.9 km/h 75% 0.0 mm 0 W/m2
03:04 7.5 °C 3.3 °C 1019.1 hPa NNW 3.2 km/h 9.7 km/h 74.9% 0.0 mm 0 W/m2
03:09 7.5 °C 3.2 °C 1019.2 hPa NW 3.2 km/h 9.7 km/h 74% 0.0 mm 0 W/m2
03:14 7.3 °C 3.1 °C 1019.1 hPa NW 1.9 km/h 9.7 km/h 74.6% 0.0 mm 0 W/m2
03:19 7 °C 3 °C 1019.1 hPa WNW 1.6 km/h 12.9 km/h 75.7% 0.0 mm 0 W/m2
03:24 6.6 °C 2.8 °C 1019.2 hPa West 2.3 km/h 12.9 km/h 76.6% 0.0 mm 0 W/m2
03:29 6 °C 2.6 °C 1019.2 hPa West 2.3 km/h 12.9 km/h 79% 0.0 mm 0 W/m2
03:34 5.7 °C 2.6 °C 1019.2 hPa WSW 1.6 km/h 6.4 km/h 80.7% 0.0 mm 0 W/m2
03:39 5.5 °C 2.6 °C 1019.2 hPa SSE 2.2 km/h 9.7 km/h 81.1% 0.0 mm 0 W/m2
03:44 5.4 °C 2.6 °C 1019.3 hPa SE 3.2 km/h 9.7 km/h 82% 0.0 mm 0 W/m2
03:49 5.4 °C 2.6 °C 1019.4 hPa ESE 4.8 km/h 9.7 km/h 82% 0.0 mm 0 W/m2
03:54 5.4 °C 2.6 °C 1019.4 hPa ESE 4.8 km/h 9.7 km/h 82.4% 0.0 mm 0 W/m2
03:59 5.4 °C 2.7 °C 1019.5 hPa ENE 4.8 km/h 9.7 km/h 82.8% 0.0 mm 0 W/m2
04:04 5.4 °C 2.7 °C 1019.5 hPa ENE 4.5 km/h 9.7 km/h 82.9% 0.0 mm 0 W/m2
04:09 5.3 °C 2.6 °C 1019.6 hPa ENE 3.5 km/h 11.3 km/h 83% 0.0 mm 0 W/m2
04:14 5.3 °C 2.7 °C 1019.6 hPa NE 4.8 km/h 11.3 km/h 83% 0.0 mm 0 W/m2
04:19 5.4 °C 2.8 °C 1019.6 hPa NE 6.4 km/h 11.3 km/h 83% 0.0 mm 0 W/m2
04:24 5.4 °C 2.7 °C 1019.6 hPa NE 5.2 km/h 11.3 km/h 83% 0.0 mm 0 W/m2
04:29 5.3 °C 2.6 °C 1019.7 hPa ENE 3.9 km/h 9.7 km/h 83% 0.0 mm 0 W/m2
04:34 5.3 °C 2.6 °C 1019.7 hPa NE 3.5 km/h 11.3 km/h 83% 0.0 mm 0 W/m2
04:39 5.3 °C 2.7 °C 1019.7 hPa NNE 4.8 km/h 12.9 km/h 83% 0.0 mm 0 W/m2
04:44 5.3 °C 2.6 °C 1019.7 hPa NNE 4.8 km/h 12.9 km/h 83% 0.0 mm 0 W/m2
04:49 5.3 °C 2.6 °C 1019.8 hPa NNE 4.8 km/h 12.9 km/h 83% 0.0 mm 0 W/m2
04:54 5.3 °C 2.7 °C 1019.9 hPa NE 4.8 km/h 12.9 km/h 83% 0.0 mm 0 W/m2
04:59 5.3 °C 2.6 °C 1019.9 hPa NE 4.2 km/h 14.5 km/h 83% 0.0 mm 0 W/m2
05:04 5.3 °C 2.6 °C 1020.1 hPa ENE 4.8 km/h 14.5 km/h 83% 0.0 mm 0 W/m2
05:09 5.2 °C 2.6 °C 1020.1 hPa NE 4.8 km/h 14.5 km/h 83.7% 0.0 mm 0 W/m2
05:14 5.1 °C 2.6 °C 1020.1 hPa NNE 4.8 km/h 8 km/h 84% 0.0 mm 0 W/m2
05:19 5 °C 2.5 °C 1020.1 hPa NNE 4.8 km/h 8 km/h 84% 0.0 mm 0 W/m2
05:24 4.9 °C 2.4 °C 1020.2 hPa NNE 4.8 km/h 11.3 km/h 84% 0.0 mm 0 W/m2
Compliments of Weather Underground - 512 kb

Latitude S 35° 13' 00" Longitude E 149° 01' 22" Elevation 577 m
Page updated 19/09/2021 5:25:01 AM.
Powered by Cumulus MX v3.2.0 (3056)